sensor_id;sensor_type;location;lat;lon;timestamp;pressure;altitude;pressure_sealevel;temperature;humidity
32083;BME280;18597;48.328;7.932;2023-06-14T00:01:46;98943.50;;;12.76;64.27
32083;BME280;18597;48.328;7.932;2023-06-14T00:04:13;98940.78;;;12.68;64.74
32083;BME280;18597;48.328;7.932;2023-06-14T00:06:39;98943.63;;;12.66;64.72
32083;BME280;18597;48.328;7.932;2023-06-14T00:09:07;98935.56;;;12.58;65.07
32083;BME280;18597;48.328;7.932;2023-06-14T00:11:34;98933.88;;;12.57;66.15
32083;BME280;18597;48.328;7.932;2023-06-14T00:14:00;98935.78;;;12.39;67.05
32083;BME280;18597;48.328;7.932;2023-06-14T00:16:25;98938.94;;;12.26;68.18
32083;BME280;18597;48.328;7.932;2023-06-14T00:18:51;98934.63;;;12.33;68.25
32083;BME280;18597;48.328;7.932;2023-06-14T00:21:17;98922.44;;;12.13;69.24
32083;BME280;18597;48.328;7.932;2023-06-14T00:23:43;98933.66;;;12.16;69.02
32083;BME280;18597;48.328;7.932;2023-06-14T00:26:10;98930.94;;;12.08;69.21
32083;BME280;18597;48.328;7.932;2023-06-14T00:28:36;98924.41;;;12.37;67.44
32083;BME280;18597;48.328;7.932;2023-06-14T00:31:01;98930.34;;;12.48;65.97
32083;BME280;18597;48.328;7.932;2023-06-14T00:33:28;98926.66;;;12.49;66.49
32083;BME280;18597;48.328;7.932;2023-06-14T00:35:53;98926.13;;;12.46;66.72
32083;BME280;18597;48.328;7.932;2023-06-14T00:38:20;98932.81;;;12.16;68.77
32083;BME280;18597;48.328;7.932;2023-06-14T00:40:46;98928.56;;;12.31;68.37
32083;BME280;18597;48.328;7.932;2023-06-14T00:43:12;98928.97;;;12.10;70.29
32083;BME280;18597;48.328;7.932;2023-06-14T00:45:38;98933.31;;;12.11;70.83
32083;BME280;18597;48.328;7.932;2023-06-14T00:48:04;98933.19;;;12.21;70.39
32083;BME280;18597;48.328;7.932;2023-06-14T00:50:32;98939.00;;;12.16;70.58
32083;BME280;18597;48.328;7.932;2023-06-14T00:53:00;98930.84;;;12.18;69.23
32083;BME280;18597;48.328;7.932;2023-06-14T00:55:27;98931.53;;;12.20;70.64
32083;BME280;18597;48.328;7.932;2023-06-14T00:57:55;98936.78;;;12.04;71.41
32083;BME280;18597;48.328;7.932;2023-06-14T01:00:22;98937.56;;;11.78;72.67
32083;BME280;18597;48.328;7.932;2023-06-14T01:02:48;98939.03;;;11.55;74.37
32083;BME280;18597;48.328;7.932;2023-06-14T01:05:16;98934.69;;;11.54;75.58
32083;BME280;18597;48.328;7.932;2023-06-14T01:11:19;98932.31;;;11.68;73.65
32083;BME280;18597;48.328;7.932;2023-06-14T01:13:49;98932.72;;;12.00;71.20
32083;BME280;18597;48.328;7.932;2023-06-14T01:16:17;98935.84;;;11.87;71.09
32083;BME280;18597;48.328;7.932;2023-06-14T01:18:44;98939.56;;;11.76;72.91
32083;BME280;18597;48.328;7.932;2023-06-14T01:21:28;98939.03;;;11.73;73.48
32083;BME280;18597;48.328;7.932;2023-06-14T01:23:55;98935.97;;;11.67;74.95
32083;BME280;18597;48.328;7.932;2023-06-14T01:26:23;98935.22;;;11.57;76.40
32083;BME280;18597;48.328;7.932;2023-06-14T01:28:50;98942.13;;;11.42;77.60
32083;BME280;18597;48.328;7.932;2023-06-14T01:31:20;98934.78;;;11.26;78.16
32083;BME280;18597;48.328;7.932;2023-06-14T01:33:49;98942.66;;;11.46;76.22
32083;BME280;18597;48.328;7.932;2023-06-14T01:36:18;98935.22;;;11.57;75.77
32083;BME280;18597;48.328;7.932;2023-06-14T01:38:46;98945.94;;;11.57;75.97
32083;BME280;18597;48.328;7.932;2023-06-14T01:41:16;98945.31;;;11.46;77.64
32083;BME280;18597;48.328;7.932;2023-06-14T01:43:43;98946.16;;;11.46;76.92
32083;BME280;18597;48.328;7.932;2023-06-14T01:46:11;98950.00;;;11.44;76.71
32083;BME280;18597;48.328;7.932;2023-06-14T01:48:37;98948.22;;;11.34;78.54
32083;BME280;18597;48.328;7.932;2023-06-14T01:51:03;98938.50;;;11.16;79.42
32083;BME280;18597;48.328;7.932;2023-06-14T01:53:29;98954.53;;;10.98;80.22
32083;BME280;18597;48.328;7.932;2023-06-14T01:55:54;98952.97;;;10.95;79.82
32083;BME280;18597;48.328;7.932;2023-06-14T01:58:20;98944.34;;;10.83;80.56
32083;BME280;18597;48.328;7.932;2023-06-14T02:00:46;98943.69;;;11.17;78.17
32083;BME280;18597;48.328;7.932;2023-06-14T02:03:13;98944.00;;;11.14;78.63
32083;BME280;18597;48.328;7.932;2023-06-14T02:05:39;98945.53;;;11.17;78.43
32083;BME280;18597;48.328;7.932;2023-06-14T02:08:06;98940.09;;;11.08;79.24
32083;BME280;18597;48.328;7.932;2023-06-14T02:10:32;98946.59;;;11.24;78.32
32083;BME280;18597;48.328;7.932;2023-06-14T02:12:57;98949.50;;;11.13;77.83
32083;BME280;18597;48.328;7.932;2023-06-14T02:15:23;98944.41;;;11.19;77.50
32083;BME280;18597;48.328;7.932;2023-06-14T02:17:49;98944.53;;;11.18;77.43
32083;BME280;18597;48.328;7.932;2023-06-14T02:20:15;98943.34;;;11.30;76.82
32083;BME280;18597;48.328;7.932;2023-06-14T02:22:41;98955.94;;;11.37;76.74
32083;BME280;18597;48.328;7.932;2023-06-14T02:25:08;98949.44;;;11.40;75.98
32083;BME280;18597;48.328;7.932;2023-06-14T02:27:35;98955.19;;;11.45;75.36
32083;BME280;18597;48.328;7.932;2023-06-14T02:30:01;98956.34;;;11.43;75.61
32083;BME280;18597;48.328;7.932;2023-06-14T02:32:27;98945.91;;;11.39;76.00
32083;BME280;18597;48.328;7.932;2023-06-14T02:34:53;98953.88;;;11.31;78.33
32083;BME280;18597;48.328;7.932;2023-06-14T02:37:20;98954.09;;;11.20;78.39
32083;BME280;18597;48.328;7.932;2023-06-14T02:39:46;98950.34;;;11.13;78.47
32083;BME280;18597;48.328;7.932;2023-06-14T02:42:12;98943.41;;;11.20;77.88
32083;BME280;18597;48.328;7.932;2023-06-14T02:44:38;98952.63;;;11.26;77.34
32083;BME280;18597;48.328;7.932;2023-06-14T02:47:04;98951.44;;;11.20;78.07
32083;BME280;18597;48.328;7.932;2023-06-14T02:49:30;98951.28;;;11.22;77.76
32083;BME280;18597;48.328;7.932;2023-06-14T02:51:56;98947.97;;;11.10;78.69
32083;BME280;18597;48.328;7.932;2023-06-14T02:54:22;98956.53;;;10.96;80.84
32083;BME280;18597;48.328;7.932;2023-06-14T02:56:48;98955.63;;;10.77;82.29
32083;BME280;18597;48.328;7.932;2023-06-14T02:59:14;98958.72;;;10.73;83.37
32083;BME280;18597;48.328;7.932;2023-06-14T03:01:41;98962.38;;;10.81;82.66
32083;BME280;18597;48.328;7.932;2023-06-14T03:04:08;98960.56;;;10.72;83.54
32083;BME280;18597;48.328;7.932;2023-06-14T03:06:34;98962.22;;;10.83;82.74
32083;BME280;18597;48.328;7.932;2023-06-14T03:09:01;98965.72;;;10.83;81.38
32083;BME280;18597;48.328;7.932;2023-06-14T03:11:31;98966.06;;;10.98;80.42
32083;BME280;18597;48.328;7.932;2023-06-14T03:13:57;98967.81;;;10.90;80.44
32083;BME280;18597;48.328;7.932;2023-06-14T03:16:24;98977.50;;;10.91;80.95
32083;BME280;18597;48.328;7.932;2023-06-14T03:18:51;98971.16;;;10.92;81.88
32083;BME280;18597;48.328;7.932;2023-06-14T03:21:19;98978.25;;;10.83;82.15
32083;BME280;18597;48.328;7.932;2023-06-14T03:23:46;98966.22;;;10.69;84.08
32083;BME280;18597;48.328;7.932;2023-06-14T03:26:12;98983.81;;;10.62;84.78
32083;BME280;18597;48.328;7.932;2023-06-14T03:28:40;98982.72;;;10.55;84.86
32083;BME280;18597;48.328;7.932;2023-06-14T03:31:06;98985.13;;;10.48;85.34
32083;BME280;18597;48.328;7.932;2023-06-14T03:33:32;98988.31;;;10.62;82.92
32083;BME280;18597;48.328;7.932;2023-06-14T03:35:58;98980.81;;;10.75;82.75
32083;BME280;18597;48.328;7.932;2023-06-14T03:38:24;98991.66;;;10.73;81.73
32083;BME280;18597;48.328;7.932;2023-06-14T03:40:49;98988.00;;;10.74;82.81
32083;BME280;18597;48.328;7.932;2023-06-14T03:43:15;98995.72;;;10.77;82.61
32083;BME280;18597;48.328;7.932;2023-06-14T03:45:41;98986.84;;;10.77;83.32
32083;BME280;18597;48.328;7.932;2023-06-14T03:48:09;98988.84;;;10.75;83.65
32083;BME280;18597;48.328;7.932;2023-06-14T03:50:35;98993.34;;;10.74;84.03
32083;BME280;18597;48.328;7.932;2023-06-14T03:53:04;98996.53;;;10.78;84.01
32083;BME280;18597;48.328;7.932;2023-06-14T03:55:30;98996.13;;;10.73;83.98
32083;BME280;18597;48.328;7.932;2023-06-14T03:57:58;98996.13;;;10.82;82.34
32083;BME280;18597;48.328;7.932;2023-06-14T04:00:24;98994.78;;;10.96;80.52
32083;BME280;18597;48.328;7.932;2023-06-14T04:02:50;98997.81;;;11.01;79.72
32083;BME280;18597;48.328;7.932;2023-06-14T04:05:17;99001.31;;;11.11;79.71
32083;BME280;18597;48.328;7.932;2023-06-14T04:07:45;99005.66;;;11.13;79.22
32083;BME280;18597;48.328;7.932;2023-06-14T04:10:12;99003.56;;;11.06;80.85
32083;BME280;18597;48.328;7.932;2023-06-14T04:12:39;99007.09;;;11.07;80.84
32083;BME280;18597;48.328;7.932;2023-06-14T04:15:06;99005.09;;;11.09;81.41
32083;BME280;18597;48.328;7.932;2023-06-14T04:17:32;99011.69;;;11.15;80.72
32083;BME280;18597;48.328;7.932;2023-06-14T04:19:59;99005.09;;;11.09;81.68
32083;BME280;18597;48.328;7.932;2023-06-14T04:22:26;99012.53;;;11.15;81.36
32083;BME280;18597;48.328;7.932;2023-06-14T04:24:54;99012.00;;;11.29;80.34
32083;BME280;18597;48.328;7.932;2023-06-14T04:27:26;99013.09;;;11.36;79.93
32083;BME280;18597;48.328;7.932;2023-06-14T04:29:53;99024.19;;;11.42;79.47
32083;BME280;18597;48.328;7.932;2023-06-14T04:32:25;99020.84;;;11.57;78.20
32083;BME280;18597;48.328;7.932;2023-06-14T04:34:54;99025.09;;;11.68;77.51
32083;BME280;18597;48.328;7.932;2023-06-14T04:37:21;99024.44;;;12.02;73.33
32083;BME280;18597;48.328;7.932;2023-06-14T04:39:48;99023.41;;;13.15;66.42
32083;BME280;18597;48.328;7.932;2023-06-14T04:42:14;99022.03;;;15.99;51.74
32083;BME280;18597;48.328;7.932;2023-06-14T04:44:42;99018.34;;;18.48;44.82
32083;BME280;18597;48.328;7.932;2023-06-14T04:47:09;99016.53;;;19.92;40.41
32083;BME280;18597;48.328;7.932;2023-06-14T04:49:36;99026.03;;;21.34;37.46
32083;BME280;18597;48.328;7.932;2023-06-14T04:52:03;99029.28;;;22.51;35.37
32083;BME280;18597;48.328;7.932;2023-06-14T04:54:29;99021.94;;;23.98;33.10
32083;BME280;18597;48.328;7.932;2023-06-14T04:56:57;99018.69;;;25.77;30.29
32083;BME280;18597;48.328;7.932;2023-06-14T04:59:23;99033.47;;;27.49;28.03
32083;BME280;18597;48.328;7.932;2023-06-14T05:01:50;99023.22;;;28.79;25.78
32083;BME280;18597;48.328;7.932;2023-06-14T05:04:18;99024.03;;;29.84;24.57
32083;BME280;18597;48.328;7.932;2023-06-14T05:06:44;99021.94;;;30.99;22.55
32083;BME280;18597;48.328;7.932;2023-06-14T05:09:12;99021.81;;;31.39;22.05
32083;BME280;18597;48.328;7.932;2023-06-14T05:11:38;99031.81;;;31.90;21.47
32083;BME280;18597;48.328;7.932;2023-06-14T05:14:04;99025.59;;;32.81;20.74
32083;BME280;18597;48.328;7.932;2023-06-14T05:16:31;99018.56;;;32.65;20.52
32083;BME280;18597;48.328;7.932;2023-06-14T05:18:57;99016.41;;;32.18;21.13
32083;BME280;18597;48.328;7.932;2023-06-14T05:21:23;99016.91;;;31.06;21.58
32083;BME280;18597;48.328;7.932;2023-06-14T05:23:49;99013.28;;;31.31;21.98
32083;BME280;18597;48.328;7.932;2023-06-14T05:26:16;99019.22;;;31.58;21.48
32083;BME280;18597;48.328;7.932;2023-06-14T05:28:42;99011.38;;;32.93;20.50
32083;BME280;18597;48.328;7.932;2023-06-14T05:31:08;99025.16;;;34.45;18.96
32083;BME280;18597;48.328;7.932;2023-06-14T05:33:34;99015.63;;;35.80;17.91
32083;BME280;18597;48.328;7.932;2023-06-14T05:35:59;99007.88;;;36.72;17.05
32083;BME280;18597;48.328;7.932;2023-06-14T05:38:25;99017.00;;;37.74;16.38
32083;BME280;18597;48.328;7.932;2023-06-14T05:40:51;99027.34;;;38.61;15.58
32083;BME280;18597;48.328;7.932;2023-06-14T05:43:17;99018.38;;;39.10;15.32
32083;BME280;18597;48.328;7.932;2023-06-14T05:45:43;99023.16;;;39.78;14.36
32083;BME280;18597;48.328;7.932;2023-06-14T05:48:08;99017.50;;;39.86;14.45
32083;BME280;18597;48.328;7.932;2023-06-14T05:50:34;99024.78;;;40.62;13.92
32083;BME280;18597;48.328;7.932;2023-06-14T05:53:00;99022.94;;;41.24;13.60
32083;BME280;18597;48.328;7.932;2023-06-14T05:55:26;99023.84;;;40.37;14.17
32083;BME280;18597;48.328;7.932;2023-06-14T05:57:51;99019.00;;;40.26;14.29
32083;BME280;18597;48.328;7.932;2023-06-14T06:00:18;99024.53;;;39.33;14.71
32083;BME280;18597;48.328;7.932;2023-06-14T06:02:45;99029.25;;;40.01;14.44
32083;BME280;18597;48.328;7.932;2023-06-14T06:05:13;99029.97;;;40.85;14.05
32083;BME280;18597;48.328;7.932;2023-06-14T06:07:41;99022.16;;;42.12;12.95
32083;BME280;18597;48.328;7.932;2023-06-14T06:10:08;99030.78;;;43.19;12.23
32083;BME280;18597;48.328;7.932;2023-06-14T06:12:34;99023.16;;;44.02;11.67
32083;BME280;18597;48.328;7.932;2023-06-14T06:15:00;99029.44;;;44.73;11.32
32083;BME280;18597;48.328;7.932;2023-06-14T06:17:26;99026.72;;;45.23;11.06
32083;BME280;18597;48.328;7.932;2023-06-14T06:19:52;99030.03;;;45.74;10.36
32083;BME280;18597;48.328;7.932;2023-06-14T06:22:18;99031.56;;;45.98;10.46
32083;BME280;18597;48.328;7.932;2023-06-14T06:24:44;99025.91;;;46.28;10.17
32083;BME280;18597;48.328;7.932;2023-06-14T06:27:10;99022.22;;;46.91;9.64
32083;BME280;18597;48.328;7.932;2023-06-14T06:29:36;99024.56;;;47.26;9.59
32083;BME280;18597;48.328;7.932;2023-06-14T06:32:02;99013.78;;;47.39;9.65
32083;BME280;18597;48.328;7.932;2023-06-14T06:34:28;99022.84;;;47.66;9.52
32083;BME280;18597;48.328;7.932;2023-06-14T06:36:54;99027.13;;;48.04;9.59
32083;BME280;18597;48.328;7.932;2023-06-14T06:39:20;99019.91;;;48.14;9.25
32083;BME280;18597;48.328;7.932;2023-06-14T06:41:46;99025.69;;;48.32;9.00
32083;BME280;18597;48.328;7.932;2023-06-14T06:44:12;99028.25;;;48.87;8.70
32083;BME280;18597;48.328;7.932;2023-06-14T06:46:39;99029.09;;;49.27;8.77
32083;BME280;18597;48.328;7.932;2023-06-14T06:49:06;99025.09;;;49.38;8.75
32083;BME280;18597;48.328;7.932;2023-06-14T06:51:32;99029.94;;;49.59;8.57
32083;BME280;18597;48.328;7.932;2023-06-14T06:53:58;99022.53;;;48.62;8.90
32083;BME280;18597;48.328;7.932;2023-06-14T06:56:24;99037.03;;;48.39;9.14
32083;BME280;18597;48.328;7.932;2023-06-14T06:58:50;99032.22;;;47.74;9.11
32083;BME280;18597;48.328;7.932;2023-06-14T07:01:17;99030.13;;;47.67;9.21
32083;BME280;18597;48.328;7.932;2023-06-14T07:03:44;99028.47;;;46.74;9.30
32083;BME280;18597;48.328;7.932;2023-06-14T07:06:10;99029.38;;;45.61;10.29
32083;BME280;18597;48.328;7.932;2023-06-14T07:08:36;99033.59;;;45.71;10.24
32083;BME280;18597;48.328;7.932;2023-06-14T07:11:05;99029.28;;;45.54;10.36
32083;BME280;18597;48.328;7.932;2023-06-14T07:13:31;99024.63;;;45.92;10.21
32083;BME280;18597;48.328;7.932;2023-06-14T07:15:59;99027.22;;;45.78;10.70
32083;BME280;18597;48.328;7.932;2023-06-14T07:18:26;99035.88;;;45.16;10.90
32083;BME280;18597;48.328;7.932;2023-06-14T07:20:53;99023.91;;;44.58;11.06
32083;BME280;18597;48.328;7.932;2023-06-14T07:23:20;99029.97;;;44.21;11.48
32083;BME280;18597;48.328;7.932;2023-06-14T07:25:46;99028.75;;;44.38;11.20
32083;BME280;18597;48.328;7.932;2023-06-14T07:28:12;99027.13;;;44.37;11.25
32083;BME280;18597;48.328;7.932;2023-06-14T07:30:38;99027.41;;;43.77;11.60
32083;BME280;18597;48.328;7.932;2023-06-14T07:33:04;99036.47;;;43.86;11.45
32083;BME280;18597;48.328;7.932;2023-06-14T07:35:29;99031.69;;;43.55;11.69
32083;BME280;18597;48.328;7.932;2023-06-14T07:37:55;99034.34;;;43.48;11.86
32083;BME280;18597;48.328;7.932;2023-06-14T07:40:21;99028.00;;;44.21;11.09
32083;BME280;18597;48.328;7.932;2023-06-14T07:42:47;99035.34;;;44.45;11.34
32083;BME280;18597;48.328;7.932;2023-06-14T07:45:14;99034.78;;;44.98;10.67
32083;BME280;18597;48.328;7.932;2023-06-14T07:47:40;99039.91;;;44.34;10.99
32083;BME280;18597;48.328;7.932;2023-06-14T07:50:06;99040.66;;;43.77;11.47
32083;BME280;18597;48.328;7.932;2023-06-14T07:52:32;99035.56;;;44.37;10.93
32083;BME280;18597;48.328;7.932;2023-06-14T07:54:58;99048.41;;;44.96;10.97
32083;BME280;18597;48.328;7.932;2023-06-14T07:57:24;99042.28;;;45.36;10.84
32083;BME280;18597;48.328;7.932;2023-06-14T07:59:50;99042.09;;;45.02;11.12
32083;BME280;18597;48.328;7.932;2023-06-14T08:02:16;99036.84;;;43.85;12.39
32083;BME280;18597;48.328;7.932;2023-06-14T08:04:42;99033.00;;;44.12;11.94
32083;BME280;18597;48.328;7.932;2023-06-14T08:07:08;99028.94;;;44.10;12.18
32083;BME280;18597;48.328;7.932;2023-06-14T08:09:35;99036.28;;;44.53;11.82
32083;BME280;18597;48.328;7.932;2023-06-14T08:12:05;99031.88;;;45.67;11.01
32083;BME280;18597;48.328;7.932;2023-06-14T08:14:33;99026.16;;;46.16;10.61
32083;BME280;18597;48.328;7.932;2023-06-14T08:16:59;99032.22;;;45.88;10.94
32083;BME280;18597;48.328;7.932;2023-06-14T08:19:25;99036.31;;;45.18;11.00
32083;BME280;18597;48.328;7.932;2023-06-14T08:21:51;99024.69;;;45.20;10.80
32083;BME280;18597;48.328;7.932;2023-06-14T08:24:17;99028.75;;;44.57;11.52
32083;BME280;18597;48.328;7.932;2023-06-14T08:26:44;99031.47;;;44.53;11.55
32083;BME280;18597;48.328;7.932;2023-06-14T08:29:10;99031.41;;;45.61;10.84
32083;BME280;18597;48.328;7.932;2023-06-14T08:31:36;99029.03;;;45.89;10.80
32083;BME280;18597;48.328;7.932;2023-06-14T08:34:01;99031.75;;;46.42;10.55
32083;BME280;18597;48.328;7.932;2023-06-14T08:36:27;99029.19;;;47.01;10.20
32083;BME280;18597;48.328;7.932;2023-06-14T08:38:53;99035.94;;;47.34;10.05
32083;BME280;18597;48.328;7.932;2023-06-14T08:41:22;99035.66;;;47.49;10.13
32083;BME280;18597;48.328;7.932;2023-06-14T08:43:53;99033.22;;;47.99;9.40
32083;BME280;18597;48.328;7.932;2023-06-14T08:46:19;99029.31;;;48.36;9.46
32083;BME280;18597;48.328;7.932;2023-06-14T08:48:48;99029.63;;;48.17;9.42
32083;BME280;18597;48.328;7.932;2023-06-14T08:51:19;99025.22;;;48.23;9.28
32083;BME280;18597;48.328;7.932;2023-06-14T08:53:53;99030.31;;;47.92;9.90
32083;BME280;18597;48.328;7.932;2023-06-14T08:56:26;99032.44;;;48.09;9.75
32083;BME280;18597;48.328;7.932;2023-06-14T08:58:53;99022.63;;;47.93;9.96
32083;BME280;18597;48.328;7.932;2023-06-14T09:01:20;99023.97;;;48.20;10.04
32083;BME280;18597;48.328;7.932;2023-06-14T09:03:48;99021.59;;;47.60;10.58
32083;BME280;18597;48.328;7.932;2023-06-14T09:06:14;99022.69;;;46.60;11.06
32083;BME280;18597;48.328;7.932;2023-06-14T09:08:46;99021.56;;;45.74;11.30
32083;BME280;18597;48.328;7.932;2023-06-14T09:11:14;99021.41;;;45.41;11.60
32083;BME280;18597;48.328;7.932;2023-06-14T09:13:41;99024.66;;;45.69;11.28
32083;BME280;18597;48.328;7.932;2023-06-14T09:16:08;99026.56;;;45.12;11.76
32083;BME280;18597;48.328;7.932;2023-06-14T09:18:44;99024.19;;;44.14;12.04
32083;BME280;18597;48.328;7.932;2023-06-14T09:21:15;99033.94;;;42.86;13.11
32083;BME280;18597;48.328;7.932;2023-06-14T09:23:45;99033.19;;;40.00;14.60
32083;BME280;18597;48.328;7.932;2023-06-14T09:26:14;99034.88;;;36.72;17.04
32083;BME280;18597;48.328;7.932;2023-06-14T09:28:43;99039.69;;;34.37;19.67
32083;BME280;18597;48.328;7.932;2023-06-14T09:31:12;99046.59;;;33.11;21.02
32083;BME280;18597;48.328;7.932;2023-06-14T09:33:38;99048.34;;;32.39;21.83
32083;BME280;18597;48.328;7.932;2023-06-14T09:36:09;99047.28;;;31.86;22.07
32083;BME280;18597;48.328;7.932;2023-06-14T09:38:35;99050.81;;;31.37;23.24
32083;BME280;18597;48.328;7.932;2023-06-14T09:41:03;99055.25;;;31.12;23.04
32083;BME280;18597;48.328;7.932;2023-06-14T09:43:29;99050.38;;;30.69;23.54
32083;BME280;18597;48.328;7.932;2023-06-14T09:46:01;99047.03;;;30.41;23.87
32083;BME280;18597;48.328;7.932;2023-06-14T09:48:26;99050.59;;;30.26;23.37
32083;BME280;18597;48.328;7.932;2023-06-14T09:50:55;99053.34;;;30.16;23.94
32083;BME280;18597;48.328;7.932;2023-06-14T09:53:23;99057.97;;;30.05;23.81
32083;BME280;18597;48.328;7.932;2023-06-14T09:55:52;99055.41;;;29.73;24.00
32083;BME280;18597;48.328;7.932;2023-06-14T09:58:23;99051.78;;;29.58;24.41
32083;BME280;18597;48.328;7.932;2023-06-14T10:00:51;99048.72;;;29.54;24.59
32083;BME280;18597;48.328;7.932;2023-06-14T10:03:25;99047.03;;;29.48;25.73
32083;BME280;18597;48.328;7.932;2023-06-14T10:05:54;99050.09;;;29.51;24.49
32083;BME280;18597;48.328;7.932;2023-06-14T10:08:25;99057.38;;;29.78;24.50
32083;BME280;18597;48.328;7.932;2023-06-14T10:10:55;99045.53;;;29.88;24.92
32083;BME280;18597;48.328;7.932;2023-06-14T10:13:21;99050.53;;;30.06;24.82
32083;BME280;18597;48.328;7.932;2023-06-14T10:19:15;99038.94;;;29.89;25.71
32083;BME280;18597;48.328;7.932;2023-06-14T10:22:10;99031.56;;;30.15;24.21
32083;BME280;18597;48.328;7.932;2023-06-14T10:24:42;99032.97;;;30.43;22.22
32083;BME280;18597;48.328;7.932;2023-06-14T10:27:09;99034.91;;;30.42;22.57
32083;BME280;18597;48.328;7.932;2023-06-14T10:32:32;99039.59;;;30.31;23.39
32083;BME280;18597;48.328;7.932;2023-06-14T10:35:01;99029.66;;;30.25;22.84
32083;BME280;18597;48.328;7.932;2023-06-14T10:37:29;99029.38;;;30.27;23.92
32083;BME280;18597;48.328;7.932;2023-06-14T10:39:55;99025.53;;;30.33;23.51
32083;BME280;18597;48.328;7.932;2023-06-14T10:42:22;99019.75;;;30.34;23.52
32083;BME280;18597;48.328;7.932;2023-06-14T10:44:55;99021.94;;;30.43;23.34
32083;BME280;18597;48.328;7.932;2023-06-14T10:47:31;99016.44;;;30.73;23.32
32083;BME280;18597;48.328;7.932;2023-06-14T10:50:08;99020.03;;;30.84;22.40
32083;BME280;18597;48.328;7.932;2023-06-14T10:52:40;99024.41;;;30.59;22.37
32083;BME280;18597;48.328;7.932;2023-06-14T10:55:15;99024.34;;;29.78;23.29
32083;BME280;18597;48.328;7.932;2023-06-14T10:57:45;99020.19;;;29.13;24.49
32083;BME280;18597;48.328;7.932;2023-06-14T11:00:13;99025.88;;;29.01;24.47
32083;BME280;18597;48.328;7.932;2023-06-14T11:05:58;99020.97;;;28.66;24.25
32083;BME280;18597;48.328;7.932;2023-06-14T11:11:07;99014.19;;;28.14;24.92
32083;BME280;18597;48.328;7.932;2023-06-14T11:13:33;99016.63;;;28.11;24.99
32083;BME280;18597;48.328;7.932;2023-06-14T11:15:59;99014.25;;;27.92;25.06
32083;BME280;18597;48.328;7.932;2023-06-14T11:18:25;99015.13;;;27.71;24.87
32083;BME280;18597;48.328;7.932;2023-06-14T11:20:53;99007.66;;;27.67;25.00
32083;BME280;18597;48.328;7.932;2023-06-14T11:23:19;99005.09;;;27.60;25.24
32083;BME280;18597;48.328;7.932;2023-06-14T11:25:53;99018.44;;;27.73;25.21
32083;BME280;18597;48.328;7.932;2023-06-14T11:28:18;99014.09;;;27.77;24.72
32083;BME280;18597;48.328;7.932;2023-06-14T11:30:48;99014.19;;;27.65;25.71
32083;BME280;18597;48.328;7.932;2023-06-14T11:33:18;99006.75;;;27.61;25.14
32083;BME280;18597;48.328;7.932;2023-06-14T11:35:44;99008.31;;;27.52;25.77
32083;BME280;18597;48.328;7.932;2023-06-14T11:38:11;98995.78;;;27.61;25.35
32083;BME280;18597;48.328;7.932;2023-06-14T11:40:38;99008.50;;;27.45;25.67
32083;BME280;18597;48.328;7.932;2023-06-14T11:43:04;99008.41;;;27.40;26.01
32083;BME280;18597;48.328;7.932;2023-06-14T11:45:31;99005.28;;;27.53;25.89
32083;BME280;18597;48.328;7.932;2023-06-14T11:47:58;99002.38;;;27.65;25.95
32083;BME280;18597;48.328;7.932;2023-06-14T11:50:25;98993.28;;;27.81;25.46
32083;BME280;18597;48.328;7.932;2023-06-14T11:52:59;98991.13;;;27.88;25.51
32083;BME280;18597;48.328;7.932;2023-06-14T11:55:37;99009.59;;;27.93;25.09
32083;BME280;18597;48.328;7.932;2023-06-14T11:58:03;98999.63;;;27.60;25.27
32083;BME280;18597;48.328;7.932;2023-06-14T12:00:30;99004.41;;;27.48;25.77
32083;BME280;18597;48.328;7.932;2023-06-14T12:02:57;99005.38;;;27.36;25.85
32083;BME280;18597;48.328;7.932;2023-06-14T12:05:24;99000.38;;;27.33;25.81
32083;BME280;18597;48.328;7.932;2023-06-14T12:07:59;99002.75;;;27.25;26.29
32083;BME280;18597;48.328;7.932;2023-06-14T12:10:26;99011.72;;;27.42;25.72
32083;BME280;18597;48.328;7.932;2023-06-14T12:12:58;99005.22;;;27.04;26.28
32083;BME280;18597;48.328;7.932;2023-06-14T12:15:27;99008.22;;;26.86;26.44
32083;BME280;18597;48.328;7.932;2023-06-14T12:17:54;99005.66;;;26.79;26.32
32083;BME280;18597;48.328;7.932;2023-06-14T12:20:20;99002.66;;;26.81;26.89
32083;BME280;18597;48.328;7.932;2023-06-14T12:25:30;99009.56;;;26.67;25.98
32083;BME280;18597;48.328;7.932;2023-06-14T12:27:59;98990.34;;;26.62;26.34
32083;BME280;18597;48.328;7.932;2023-06-14T12:30:25;98995.81;;;26.62;26.28
32083;BME280;18597;48.328;7.932;2023-06-14T12:32:51;98993.19;;;26.89;25.93
32083;BME280;18597;48.328;7.932;2023-06-14T12:35:18;99003.50;;;27.20;26.06
32083;BME280;18597;48.328;7.932;2023-06-14T12:37:45;98991.06;;;27.34;25.14
32083;BME280;18597;48.328;7.932;2023-06-14T12:40:12;98999.19;;;27.24;24.98
32083;BME280;18597;48.328;7.932;2023-06-14T12:42:38;98998.16;;;27.08;25.79
32083;BME280;18597;48.328;7.932;2023-06-14T12:45:05;99005.03;;;27.11;25.67
32083;BME280;18597;48.328;7.932;2023-06-14T12:47:30;99016.59;;;27.13;24.99
32083;BME280;18597;48.328;7.932;2023-06-14T12:49:56;99001.75;;;26.92;25.77
32083;BME280;18597;48.328;7.932;2023-06-14T12:52:22;99016.72;;;26.85;26.18
32083;BME280;18597;48.328;7.932;2023-06-14T12:54:48;99013.88;;;26.79;25.41
32083;BME280;18597;48.328;7.932;2023-06-14T12:57:13;99009.91;;;26.70;26.10
32083;BME280;18597;48.328;7.932;2023-06-14T12:59:39;99006.41;;;26.92;26.14
32083;BME280;18597;48.328;7.932;2023-06-14T13:02:20;99002.69;;;27.03;25.84
32083;BME280;18597;48.328;7.932;2023-06-14T13:04:47;99007.13;;;27.04;25.54
32083;BME280;18597;48.328;7.932;2023-06-14T13:07:13;99016.09;;;26.99;26.06
32083;BME280;18597;48.328;7.932;2023-06-14T13:09:41;99012.97;;;26.91;26.11
32083;BME280;18597;48.328;7.932;2023-06-14T13:12:10;99023.47;;;26.60;26.67
32083;BME280;18597;48.328;7.932;2023-06-14T13:14:37;99027.44;;;26.52;26.31
32083;BME280;18597;48.328;7.932;2023-06-14T13:17:04;99029.28;;;26.47;26.52
32083;BME280;18597;48.328;7.932;2023-06-14T13:19:29;99012.06;;;26.51;25.82